createdAt,value
2023-03-28T00:01:09.746Z,98096.53
2023-03-28T00:03:40.771Z,98100.22
2023-03-28T00:06:12.438Z,98101.22
2023-03-28T00:08:45.829Z,98100.41
2023-03-28T00:11:19.500Z,98103.22
2023-03-28T00:13:48.588Z,98101.63
2023-03-28T00:16:17.035Z,98103.53
2023-03-28T00:18:47.020Z,98104.53
2023-03-28T00:21:26.281Z,98107.25
2023-03-28T00:23:57.131Z,98103.06
2023-03-28T00:26:27.683Z,98108.59
2023-03-28T00:28:56.560Z,98120.03
2023-03-28T00:31:26.349Z,98118.63
2023-03-28T00:34:01.932Z,98119.78
2023-03-28T00:36:32.776Z,98105.19
2023-03-28T00:39:06.415Z,98113.13
2023-03-28T00:41:40.106Z,98110.63
2023-03-28T00:44:47.789Z,98116.91
2023-03-28T00:47:30.860Z,98119.72
2023-03-28T00:50:07.571Z,98123.53
2023-03-28T00:52:42.686Z,98130.69
2023-03-28T00:55:17.157Z,98123.94
2023-03-28T00:57:47.610Z,98131.78
2023-03-28T01:00:19.210Z,98123.94
2023-03-28T01:02:52.503Z,98132.75
2023-03-28T01:05:26.560Z,98126.09
2023-03-28T01:07:59.403Z,98135.47
2023-03-28T01:10:27.919Z,98146.91
2023-03-28T01:12:57.730Z,98143.50
2023-03-28T01:15:29.036Z,98144.38
2023-03-28T01:18:02.910Z,98140.22
2023-03-28T01:21:09.441Z,98136.03
2023-03-28T01:24:11.566Z,98153.81
2023-03-28T01:26:54.253Z,98155.69
2023-03-28T01:30:11.233Z,98150.63
2023-03-28T01:33:26.000Z,98150.81
2023-03-28T01:36:50.704Z,98154.38
2023-03-28T01:39:29.049Z,98158.97
2023-03-28T01:42:04.588Z,98167.69
2023-03-28T01:44:41.514Z,98172.06
2023-03-28T01:47:15.042Z,98167.69
2023-03-28T01:49:52.903Z,98168.59
2023-03-28T01:52:29.072Z,98179.19
2023-03-28T01:55:08.620Z,98180.97
2023-03-28T01:57:44.436Z,98170.50
2023-03-28T02:00:20.107Z,98173.94
2023-03-28T02:02:58.985Z,98174.03
2023-03-28T02:05:34.197Z,98175.06
2023-03-28T02:08:05.896Z,98174.13
2023-03-28T02:10:38.414Z,98178.44
2023-03-28T02:13:13.751Z,98175.81
2023-03-28T02:15:47.042Z,98176.66
2023-03-28T02:18:21.597Z,98174.78
2023-03-28T02:20:55.045Z,98173.13
2023-03-28T02:23:28.796Z,98178.25
2023-03-28T02:25:59.004Z,98181.06
2023-03-28T02:28:27.710Z,98186.13
2023-03-28T02:30:56.412Z,98185.38
2023-03-28T02:33:41.906Z,98191.56
2023-03-28T02:36:25.922Z,98197.72
2023-03-28T02:39:22.996Z,98199.59
2023-03-28T02:42:08.583Z,98204.84
2023-03-28T02:45:09.246Z,98196.31
2023-03-28T02:47:41.837Z,98205.03
2023-03-28T02:50:23.253Z,98201.81
2023-03-28T02:52:58.636Z,98204.44
2023-03-28T02:55:34.745Z,98210.44
2023-03-28T02:58:10.332Z,98209.59
2023-03-28T03:00:40.239Z,98210.44
2023-03-28T03:03:10.681Z,98210.44
2023-03-28T03:05:39.599Z,98211.28
2023-03-28T03:08:11.696Z,98212.97
2023-03-28T03:10:40.065Z,98210.34
2023-03-28T03:13:09.834Z,98216.50
2023-03-28T03:15:38.270Z,98221.75
2023-03-28T03:18:06.792Z,98217.38
2023-03-28T03:20:35.136Z,98224.38
2023-03-28T03:23:03.511Z,98221.75
2023-03-28T03:25:32.337Z,98227.84
2023-03-28T03:28:00.664Z,98238.34
2023-03-28T03:30:30.535Z,98239.09
2023-03-28T03:33:00.555Z,98236.47
2023-03-28T03:35:33.421Z,98237.41
2023-03-28T03:38:02.060Z,98239.19
2023-03-28T03:40:32.815Z,98241.81
2023-03-28T03:43:01.174Z,98244.53
2023-03-28T03:45:30.986Z,98249.78
2023-03-28T03:47:59.401Z,98241.06
2023-03-28T03:50:27.830Z,98247.97
2023-03-28T03:52:56.605Z,98249.78
2023-03-28T03:55:26.637Z,98252.38
2023-03-28T03:57:54.950Z,98254.16
2023-03-28T04:00:23.507Z,98248.91
2023-03-28T04:02:56.459Z,98251.63
2023-03-28T04:05:25.093Z,98249.84
2023-03-28T04:07:53.477Z,98254.25
2023-03-28T04:10:21.788Z,98258.81
2023-03-28T04:12:50.081Z,98253.56
2023-03-28T04:15:21.366Z,98260.78
2023-03-28T04:17:50.497Z,98272.19
2023-03-28T04:20:21.006Z,98272.53
2023-03-28T04:22:50.323Z,98273.47
2023-03-28T04:25:18.861Z,98272.63
2023-03-28T04:27:48.903Z,98277.84
2023-03-28T04:30:18.022Z,98289.28
2023-03-28T04:32:49.598Z,98288.59
2023-03-28T04:35:22.614Z,98292.00
2023-03-28T04:37:51.643Z,98301.69
2023-03-28T04:40:21.734Z,98297.41
2023-03-28T04:42:50.143Z,98301.63
2023-03-28T04:45:22.103Z,98308.56
2023-03-28T04:47:50.624Z,98304.31
2023-03-28T04:50:20.606Z,98304.25
2023-03-28T04:52:48.917Z,98306.03
2023-03-28T04:55:20.304Z,98306.78
2023-03-28T04:57:48.613Z,98318.09
2023-03-28T05:00:18.066Z,98310.25
2023-03-28T05:02:47.878Z,98324.22
2023-03-28T05:05:20.823Z,98314.63
2023-03-28T05:07:49.229Z,98318.09
2023-03-28T05:10:17.829Z,98330.34
2023-03-28T05:12:46.120Z,98335.59
2023-03-28T05:15:22.893Z,98335.50
2023-03-28T05:17:51.997Z,98338.22
2023-03-28T05:20:21.800Z,98345.91
2023-03-28T05:22:50.092Z,98347.63
2023-03-28T05:25:18.759Z,98338.81
2023-03-28T05:27:47.452Z,98346.41
2023-03-28T05:30:16.100Z,98348.19
2023-03-28T05:32:44.648Z,98348.00
2023-03-28T05:35:15.771Z,98354.88
2023-03-28T05:37:47.016Z,98348.59
2023-03-28T05:40:16.780Z,98350.28
2023-03-28T05:42:45.860Z,98360.44
2023-03-28T05:45:14.325Z,98358.56
2023-03-28T05:47:42.761Z,98362.63
2023-03-28T05:50:11.931Z,98366.66
2023-03-28T05:52:40.311Z,98370.03
2023-03-28T05:55:10.873Z,98357.53
2023-03-28T05:57:39.242Z,98360.69
2023-03-28T06:00:11.830Z,98365.88
2023-03-28T06:02:40.826Z,98362.06
2023-03-28T06:05:10.487Z,98365.41
2023-03-28T06:07:42.853Z,98360.84
2023-03-28T06:10:15.646Z,98359.63
2023-03-28T06:12:44.074Z,98366.50
2023-03-28T06:15:15.605Z,98367.34
2023-03-28T06:17:43.917Z,98386.19
2023-03-28T06:20:13.441Z,98385.16
2023-03-28T06:22:41.818Z,98379.34
2023-03-28T06:25:12.308Z,98393.72
2023-03-28T06:27:40.922Z,98391.81
2023-03-28T06:30:10.821Z,98383.69
2023-03-28T06:32:39.245Z,98382.84
2023-03-28T06:35:09.770Z,98387.84
2023-03-28T06:37:38.106Z,98388.56
2023-03-28T06:40:07.938Z,98396.16
2023-03-28T06:42:37.777Z,98399.28
2023-03-28T06:45:07.140Z,98399.19
2023-03-28T06:47:35.581Z,98398.44
2023-03-28T06:50:03.964Z,98410.63
2023-03-28T06:52:32.283Z,98407.06
2023-03-28T06:55:00.584Z,98415.53
2023-03-28T06:57:28.927Z,98425.00
2023-03-28T06:59:58.606Z,98422.38
2023-03-28T07:02:27.104Z,98423.69
2023-03-28T07:04:55.658Z,98426.31
2023-03-28T07:07:23.996Z,98430.53
2023-03-28T07:09:54.703Z,98432.97
2023-03-28T07:12:23.193Z,98437.84
2023-03-28T07:14:51.517Z,98441.16
2023-03-28T07:17:21.328Z,98446.09
2023-03-28T07:19:51.267Z,98451.66
2023-03-28T07:22:19.581Z,98454.00
2023-03-28T07:24:47.934Z,98462.66
2023-03-28T07:27:17.193Z,98463.47
2023-03-28T07:29:45.672Z,98475.50
2023-03-28T07:32:14.258Z,98478.22
2023-03-28T07:34:44.134Z,98474.47
2023-03-28T07:37:12.412Z,98488.38
2023-03-28T07:39:43.707Z,98495.31
2023-03-28T07:42:13.188Z,98496.91
2023-03-28T07:44:42.489Z,98497.84
2023-03-28T07:47:12.126Z,98499.72
2023-03-28T07:49:41.041Z,98505.63
2023-03-28T07:52:11.705Z,98504.78
2023-03-28T07:54:40.004Z,98506.41
2023-03-28T07:57:08.376Z,98510.97
2023-03-28T07:59:36.851Z,98510.88
2023-03-28T08:02:05.185Z,98521.13
2023-03-28T08:04:33.741Z,98519.44
2023-03-28T08:07:02.322Z,98528.81
2023-03-28T08:09:32.076Z,98520.75
2023-03-28T08:12:00.520Z,98524.16
2023-03-28T08:14:28.971Z,98524.78
2023-03-28T08:16:57.326Z,98520.22
2023-03-28T08:19:25.687Z,98523.38
2023-03-28T08:21:53.983Z,98523.28
2023-03-28T08:24:34.919Z,98530.91
2023-03-28T08:27:05.812Z,98526.22
2023-03-28T08:29:34.069Z,98530.53
2023-03-28T08:32:03.679Z,98521.53
2023-03-28T08:34:31.994Z,98522.97
2023-03-28T08:37:00.728Z,98515.94
2023-03-28T08:39:29.205Z,98519.88
2023-03-28T08:42:54.513Z,98519.97
2023-03-28T08:45:44.797Z,98522.69
2023-03-28T08:48:24.020Z,98524.66
2023-03-28T08:50:58.864Z,98535.28
2023-03-28T08:53:34.430Z,98526.53
2023-03-28T08:56:06.182Z,98536.09
2023-03-28T08:58:42.601Z,98546.25
2023-03-28T09:01:12.080Z,98538.63
2023-03-28T09:03:40.902Z,98539.16
2023-03-28T09:06:23.974Z,98529.50
2023-03-28T09:09:35.902Z,98542.28
2023-03-28T09:12:19.534Z,98538.78
2023-03-28T09:15:16.260Z,98523.25
2023-03-28T09:17:59.952Z,98530.78
2023-03-28T09:20:35.024Z,98523.88
2023-03-28T09:23:56.550Z,98531.81
2023-03-28T09:26:29.528Z,98522.06
2023-03-28T09:29:02.331Z,98529.06
2023-03-28T09:31:41.873Z,98529.09
2023-03-28T09:34:20.078Z,98533.22
2023-03-28T09:36:54.131Z,98532.19
2023-03-28T09:39:35.344Z,98535.13
2023-03-28T09:42:10.135Z,98540.00
2023-03-28T09:44:54.131Z,98536.25
2023-03-28T09:47:24.795Z,98536.38
2023-03-28T09:50:02.206Z,98522.31
2023-03-28T09:52:34.195Z,98535.28
2023-03-28T09:55:03.229Z,98529.25
2023-03-28T09:58:04.072Z,98525.47
2023-03-28T10:00:37.983Z,98529.88
2023-03-28T10:03:23.138Z,98539.63
2023-03-28T10:05:52.815Z,98533.50
2023-03-28T10:08:26.637Z,98527.63
2023-03-28T10:11:02.164Z,98534.28
2023-03-28T10:13:43.913Z,98515.44
2023-03-28T10:16:14.953Z,98509.84
2023-03-28T10:18:45.085Z,98515.00
2023-03-28T10:21:17.338Z,98521.00
2023-03-28T10:23:51.731Z,98518.13
2023-03-28T10:26:26.025Z,98511.66
2023-03-28T10:28:57.551Z,98517.66
2023-03-28T10:31:30.599Z,98515.88
2023-03-28T10:34:02.725Z,98518.03
2023-03-28T10:36:34.315Z,98519.22
2023-03-28T10:39:22.973Z,98525.38
2023-03-28T10:41:56.201Z,98527.91
2023-03-28T10:44:30.790Z,98530.28
2023-03-28T10:47:03.461Z,98540.81
2023-03-28T10:49:44.423Z,98537.31
2023-03-28T10:52:23.919Z,98532.81
2023-03-28T10:55:04.878Z,98537.97
2023-03-28T10:57:41.487Z,98538.19
2023-03-28T11:00:16.728Z,98534.56
2023-03-28T11:02:57.738Z,98526.53
2023-03-28T11:05:36.221Z,98528.22
2023-03-28T11:08:24.094Z,98536.66
2023-03-28T11:11:03.151Z,98521.41
2023-03-28T11:13:41.813Z,98534.94
2023-03-28T11:16:19.886Z,98530.91
2023-03-28T11:19:05.740Z,98528.88
2023-03-28T11:21:45.408Z,98533.00
2023-03-28T11:24:28.957Z,98541.16
2023-03-28T11:27:15.526Z,98537.59
2023-03-28T11:29:49.331Z,98523.22
2023-03-28T11:32:22.628Z,98526.91
2023-03-28T11:35:04.442Z,98514.44
2023-03-28T11:37:38.923Z,98516.06
2023-03-28T11:40:17.261Z,98516.13
2023-03-28T11:42:50.196Z,98500.81
2023-03-28T11:45:37.930Z,98498.34
2023-03-28T11:48:22.619Z,98500.09
2023-03-28T11:51:04.357Z,98501.06
2023-03-28T11:53:40.791Z,98496.81
2023-03-28T11:56:25.374Z,98499.59
2023-03-28T11:59:02.234Z,98503.22
2023-03-28T12:01:33.370Z,98502.03
2023-03-28T12:04:08.883Z,98498.16
2023-03-28T12:06:52.071Z,98494.53
2023-03-28T12:09:32.522Z,98498.41
2023-03-28T12:12:09.824Z,98505.63
2023-03-28T12:14:48.406Z,98511.75
2023-03-28T12:17:23.071Z,98501.78
2023-03-28T12:19:51.454Z,98500.34
2023-03-28T12:22:26.765Z,98497.44
2023-03-28T12:25:04.418Z,98494.31
2023-03-28T12:27:44.027Z,98495.41
2023-03-28T12:30:22.508Z,98510.06
2023-03-28T12:33:02.828Z,98489.97
2023-03-28T12:35:40.776Z,98492.38
2023-03-28T12:38:24.085Z,98493.00
2023-03-28T12:41:01.042Z,98489.25
2023-03-28T12:43:39.155Z,98495.66
2023-03-28T12:46:09.019Z,98493.47
2023-03-28T12:48:41.085Z,98478.06
2023-03-28T12:51:16.204Z,98492.72
2023-03-28T12:54:07.402Z,98489.47
2023-03-28T12:56:37.191Z,98485.34
2023-03-28T12:59:50.337Z,98485.09
2023-03-28T13:02:27.115Z,98483.16
2023-03-28T13:05:04.934Z,98477.41
2023-03-28T13:08:00.414Z,98476.50
2023-03-28T13:10:37.767Z,98476.47
2023-03-28T13:13:23.022Z,98470.41
2023-03-28T13:16:03.408Z,98472.09
2023-03-28T13:18:36.490Z,98477.38
2023-03-28T13:21:07.316Z,98469.69
2023-03-28T13:23:47.905Z,98475.38
2023-03-28T13:26:16.249Z,98474.94
2023-03-28T13:28:48.860Z,98465.53
2023-03-28T13:31:25.674Z,98468.91
2023-03-28T13:33:58.525Z,98466.13
2023-03-28T13:36:30.858Z,98466.72
2023-03-28T13:39:21.373Z,98462.00
2023-03-28T13:42:01.128Z,98469.31
2023-03-28T13:44:38.078Z,98463.25
2023-03-28T13:47:07.029Z,98461.63
2023-03-28T13:49:46.248Z,98458.94
2023-03-28T13:52:19.482Z,98458.41
2023-03-28T13:54:54.104Z,98451.09
2023-03-28T13:57:25.995Z,98451.56
2023-03-28T13:59:58.452Z,98446.69
2023-03-28T14:02:38.464Z,98454.09
2023-03-28T14:05:21.143Z,98458.34
2023-03-28T14:07:51.493Z,98450.50
2023-03-28T14:10:29.862Z,98444.47
2023-03-28T14:13:01.544Z,98443.50
2023-03-28T14:15:38.607Z,98431.53
2023-03-28T14:18:09.283Z,98436.88
2023-03-28T14:20:40.253Z,98436.47
2023-03-28T14:23:09.017Z,98436.22
2023-03-28T14:25:37.420Z,98436.47
2023-03-28T14:28:10.493Z,98432.41
2023-03-28T14:30:42.868Z,98429.88
2023-03-28T14:33:21.176Z,98417.47
2023-03-28T14:36:02.744Z,98422.78
2023-03-28T14:38:38.494Z,98426.84
2023-03-28T14:41:21.403Z,98429.34
2023-03-28T14:43:54.107Z,98413.78
2023-03-28T14:46:27.562Z,98412.13
2023-03-28T14:48:58.968Z,98410.72
2023-03-28T14:51:28.178Z,98404.75
2023-03-28T14:53:58.133Z,98401.53
2023-03-28T14:56:29.008Z,98399.34
2023-03-28T14:59:02.451Z,98404.91
2023-03-28T15:01:34.240Z,98391.38
2023-03-28T15:04:06.681Z,98389.56
2023-03-28T15:06:36.501Z,98391.81
2023-03-28T15:09:12.447Z,98388.88
2023-03-28T15:11:43.821Z,98397.69
2023-03-28T15:14:30.445Z,98389.84
2023-03-28T15:17:01.457Z,98397.13
2023-03-28T15:19:37.263Z,98391.81
2023-03-28T15:22:11.239Z,98390.00
2023-03-28T15:24:40.693Z,98385.34
2023-03-28T15:27:12.268Z,98383.69
2023-03-28T15:29:41.104Z,98385.78
2023-03-28T15:32:18.261Z,98380.75
2023-03-28T15:34:49.075Z,98381.00
2023-03-28T15:37:22.221Z,98383.94
2023-03-28T15:39:52.621Z,98385.34
2023-03-28T15:42:37.852Z,98383.09
2023-03-28T15:45:37.398Z,98382.09
2023-03-28T15:48:08.124Z,98384.72
2023-03-28T15:50:39.160Z,98390.16
2023-03-28T15:53:14.566Z,98383.38
2023-03-28T15:55:43.923Z,98390.34
2023-03-28T15:58:15.788Z,98388.22
2023-03-28T16:00:47.665Z,98384.97
2023-03-28T16:03:34.503Z,98387.22
2023-03-28T16:06:32.242Z,98392.19
2023-03-28T16:09:16.867Z,98383.09
2023-03-28T16:11:46.711Z,98385.88
2023-03-28T16:14:20.830Z,98379.97
2023-03-28T16:16:54.330Z,98378.56
2023-03-28T16:19:26.105Z,98375.06
2023-03-28T16:21:55.132Z,98374.66
2023-03-28T16:24:23.501Z,98380.34
2023-03-28T16:26:51.928Z,98380.72
2023-03-28T16:29:20.492Z,98373.16
2023-03-28T16:31:49.081Z,98379.56
2023-03-28T16:34:17.522Z,98386.81
2023-03-28T16:36:47.419Z,98384.56
2023-03-28T16:39:15.934Z,98383.16
2023-03-28T16:41:44.506Z,98389.78
2023-03-28T16:44:12.946Z,98397.84
2023-03-28T16:46:41.690Z,98398.97
2023-03-28T16:49:10.231Z,98398.63
2023-03-28T16:51:38.685Z,98397.94
2023-03-28T16:54:11.792Z,98397.59
2023-03-28T16:56:40.620Z,98397.72
2023-03-28T16:59:09.053Z,98399.09
2023-03-28T17:01:39.064Z,98391.38
2023-03-28T17:04:09.116Z,98394.41
2023-03-28T17:06:37.533Z,98385.88
2023-03-28T17:09:07.541Z,98394.16
2023-03-28T17:11:36.515Z,98385.06
2023-03-28T17:14:07.007Z,98378.31
2023-03-28T17:16:35.463Z,98379.41
2023-03-28T17:19:04.041Z,98377.00
2023-03-28T17:21:32.780Z,98377.25
2023-03-28T17:24:01.376Z,98377.50
2023-03-28T17:26:31.790Z,98382.22
2023-03-28T17:29:00.195Z,98375.47
2023-03-28T17:31:28.762Z,98373.22
2023-03-28T17:33:57.369Z,98369.25
2023-03-28T17:36:28.764Z,98374.94
2023-03-28T17:38:59.379Z,98371.84
2023-03-28T17:41:28.738Z,98374.00
2023-03-28T17:43:59.898Z,98373.50
2023-03-28T17:46:28.484Z,98376.66
2023-03-28T17:48:56.892Z,98366.56
2023-03-28T17:51:26.072Z,98368.75
2023-03-28T17:53:54.517Z,98365.72
2023-03-28T17:56:23.451Z,98370.56
2023-03-28T17:58:51.944Z,98367.69
2023-03-28T18:01:22.430Z,98368.50
2023-03-28T18:03:51.526Z,98364.91
2023-03-28T18:06:20.151Z,98356.84
2023-03-28T18:08:48.842Z,98366.31
2023-03-28T18:11:20.133Z,98367.13
2023-03-28T18:13:48.779Z,98360.03
2023-03-28T18:16:19.075Z,98367.81
2023-03-28T18:18:49.000Z,98377.50
2023-03-28T18:21:17.500Z,98378.94
2023-03-28T18:23:46.115Z,98378.78
2023-03-28T18:26:14.574Z,98370.72
2023-03-28T18:28:43.293Z,98371.41
2023-03-28T18:31:14.445Z,98375.66
2023-03-28T18:33:44.468Z,98370.13
2023-03-28T18:36:15.677Z,98369.81
2023-03-28T18:38:46.549Z,98363.22
2023-03-28T18:41:15.562Z,98357.53
2023-03-28T18:43:45.540Z,98363.25
2023-03-28T18:46:16.035Z,98355.06
2023-03-28T18:48:45.510Z,98352.66
2023-03-28T18:51:15.867Z,98358.38
2023-03-28T18:53:44.819Z,98356.91
2023-03-28T18:56:13.775Z,98351.22
2023-03-28T18:58:42.294Z,98357.97
2023-03-28T19:01:11.934Z,98349.63
2023-03-28T19:03:42.453Z,98347.44
2023-03-28T19:06:15.126Z,98343.66
2023-03-28T19:08:44.812Z,98344.53
2023-03-28T19:11:16.676Z,98342.31
2023-03-28T19:13:45.134Z,98342.75
2023-03-28T19:16:16.539Z,98338.88
2023-03-28T19:18:47.012Z,98336.53
2023-03-28T19:21:17.731Z,98328.84
2023-03-28T19:23:46.778Z,98321.28
2023-03-28T19:26:15.319Z,98315.25
2023-03-28T19:28:43.739Z,98311.97
2023-03-28T19:31:14.181Z,98315.69
2023-03-28T19:33:45.115Z,98315.06
2023-03-28T19:36:13.651Z,98316.00
2023-03-28T19:38:43.403Z,98317.06
2023-03-28T19:41:18.956Z,98307.59
2023-03-28T19:43:48.739Z,98304.00
2023-03-28T19:46:26.128Z,98312.00
2023-03-28T19:48:58.249Z,98307.69
2023-03-28T19:51:26.728Z,98305.97
2023-03-28T19:53:56.917Z,98305.25
2023-03-28T19:56:25.257Z,98314.19
2023-03-28T19:58:53.655Z,98307.38
2023-03-28T20:01:22.218Z,98311.88
2023-03-28T20:03:53.134Z,98311.06
2023-03-28T20:06:23.291Z,98308.63
2023-03-28T20:08:52.220Z,98306.09
2023-03-28T20:11:22.420Z,98301.88
2023-03-28T20:13:50.885Z,98301.03
2023-03-28T20:16:19.255Z,98300.28
2023-03-28T20:18:48.280Z,98298.63
2023-03-28T20:21:16.766Z,98303.34
2023-03-28T20:23:45.210Z,98294.81
2023-03-28T20:26:18.137Z,98294.09
2023-03-28T20:28:49.891Z,98287.47
2023-03-28T20:31:19.755Z,98278.81
2023-03-28T20:33:48.141Z,98277.34
2023-03-28T20:36:17.303Z,98281.97
2023-03-28T20:38:48.967Z,98277.66
2023-03-28T20:41:19.882Z,98283.00
2023-03-28T20:43:50.312Z,98275.22
2023-03-28T20:46:20.153Z,98281.31
2023-03-28T20:48:52.248Z,98275.22
2023-03-28T20:51:22.907Z,98268.25
2023-03-28T20:53:54.914Z,98263.94
2023-03-28T20:56:25.705Z,98265.94
2023-03-28T20:58:58.225Z,98258.13
2023-03-28T21:01:28.109Z,98261.94
2023-03-28T21:04:00.495Z,98254.25
2023-03-28T21:06:33.483Z,98257.72
2023-03-28T21:09:04.836Z,98254.44
2023-03-28T21:11:35.509Z,98258.75
2023-03-28T21:14:06.908Z,98261.38
2023-03-28T21:16:38.504Z,98264.00
2023-03-28T21:19:07.633Z,98261.28
2023-03-28T21:21:36.569Z,98262.25
2023-03-28T21:24:07.340Z,98257.94
2023-03-28T21:26:35.956Z,98257.84
2023-03-28T21:29:05.832Z,98256.03
2023-03-28T21:31:34.183Z,98254.25
2023-03-28T21:34:02.599Z,98249.09
2023-03-28T21:36:30.976Z,98253.41
2023-03-28T21:38:59.254Z,98254.34
2023-03-28T21:41:28.398Z,98250.03
2023-03-28T21:44:01.561Z,98250.88
2023-03-28T21:46:31.275Z,98237.91
2023-03-28T21:49:02.307Z,98233.72
2023-03-28T21:51:32.651Z,98237.31
2023-03-28T21:54:01.253Z,98228.66
2023-03-28T21:56:29.663Z,98220.78
2023-03-28T21:58:59.247Z,98216.78
2023-03-28T22:01:27.598Z,98210.88
2023-03-28T22:03:57.294Z,98209.41
2023-03-28T22:06:25.666Z,98211.47
2023-03-28T22:08:55.175Z,98207.38
2023-03-28T22:11:28.525Z,98205.00
2023-03-28T22:14:05.417Z,98206.16
2023-03-28T22:16:37.419Z,98198.69
2023-03-28T22:19:08.637Z,98198.03
2023-03-28T22:21:38.018Z,98199.00
2023-03-28T22:24:12.996Z,98192.97
2023-03-28T22:26:42.082Z,98193.19
2023-03-28T22:29:10.557Z,98194.13
2023-03-28T22:31:39.103Z,98190.56
2023-03-28T22:34:08.867Z,98187.94
2023-03-28T22:36:37.222Z,98182.66
2023-03-28T22:39:07.384Z,98181.09
2023-03-28T22:41:35.633Z,98165.22
2023-03-28T22:44:04.140Z,98167.00
2023-03-28T22:46:32.480Z,98166.06
2023-03-28T22:49:00.824Z,98159.13
2023-03-28T22:51:33.019Z,98153.00
2023-03-28T22:54:03.174Z,98159.13
2023-03-28T22:56:31.494Z,98150.28
2023-03-28T22:59:01.285Z,98149.34
2023-03-28T23:01:30.077Z,98152.72
2023-03-28T23:04:01.583Z,98150.94
2023-03-28T23:06:31.532Z,98157.03
2023-03-28T23:08:59.900Z,98143.81
2023-03-28T23:11:28.182Z,98142.84
2023-03-28T23:13:59.264Z,98150.53
2023-03-28T23:16:27.596Z,98149.47
2023-03-28T23:18:55.979Z,98149.47
2023-03-28T23:21:25.618Z,98149.38
2023-03-28T23:23:55.730Z,98141.47
2023-03-28T23:26:24.068Z,98143.19
2023-03-28T23:28:52.771Z,98143.91
2023-03-28T23:31:21.126Z,98138.53
2023-03-28T23:33:49.616Z,98139.41
2023-03-28T23:36:20.596Z,98141.06
2023-03-28T23:38:50.074Z,98148.03
2023-03-28T23:41:19.796Z,98147.06
2023-03-28T23:43:50.525Z,98139.28
2023-03-28T23:46:22.389Z,98140.16
2023-03-28T23:48:50.713Z,98138.34
2023-03-28T23:51:19.076Z,98137.53
2023-03-28T23:53:50.054Z,98142.66
2023-03-28T23:56:19.760Z,98144.38
2023-03-28T23:58:48.027Z,98153.94
